Time;durP1;ratioP1;P1;durP2;ratioP2;P2;SDS_P1;SDS_P2;PMS_P1;PMS_P2;Temp;Humidity;BMP_temperature;BMP_pressure;BME280_temperature;BME280_humidity;BME280_pressure;Samples;Min_cycle;Max_cycle;Signal;HPM_P1;HPM_P2
2023/08/21 00:00:29;;;;;;;;;;;;;;;23.75;64.06;101731.94;4999167;28;4627;-68
2023/08/21 00:02:55;;;;;;;;;;;;;;;23.75;64.11;101731.94;4997298;28;4324;-68
2023/08/21 00:05:22;;;;;;;;;;;;;;;23.77;64.22;101734.94;5003613;28;4276;-68
2023/08/21 00:07:50;;;;;;;;;;;;;;;23.77;64.32;101729.16;5005769;28;3998;-68
2023/08/21 00:10:17;;;;;;;;;;;;;;;23.77;64.31;101723.38;4998031;28;4155;-68
2023/08/21 00:12:43;;;;;;;;;;;;;;;23.78;64.57;101724.88;5003841;28;4150;-68
2023/08/21 00:15:10;;;;;;;;;;;;;;;23.78;64.71;101730.66;5001256;28;4158;-68
2023/08/21 00:17:36;;;;;;;;;;;;;;;23.78;64.71;101730.66;4994879;28;4126;-68
2023/08/21 00:20:03;;;;;;;;;;;;;;;23.77;64.92;101728.41;4997936;28;4116;-68
2023/08/21 00:22:29;;;;;;;;;;;;;;;23.79;65.21;101737.19;4998488;28;4257;-68
2023/08/21 00:24:55;;;;;;;;;;;;;;;23.77;65.16;101734.94;5002482;28;4050;-67
2023/08/21 00:27:22;;;;;;;;;;;;;;;23.78;65.13;101724.88;4997560;28;4195;-68
2023/08/21 00:29:48;;;;;;;;;;;;;;;23.76;65.61;101721.16;5000093;28;4114;-68
2023/08/21 00:32:15;;;;;;;;;;;;;;;23.76;65.59;101733.47;4998850;28;3876;-68
2023/08/21 00:34:42;;;;;;;;;;;;;;;23.75;65.86;101731.94;4997106;28;4568;-68
2023/08/21 00:37:08;;;;;;;;;;;;;;;23.74;66.09;101732.59;4999128;28;4129;-69
2023/08/21 00:39:35;;;;;;;;;;;;;;;23.76;66.19;101738.50;5009870;28;4214;-67
2023/08/21 00:42:01;;;;;;;;;;;;;;;23.74;66.29;101723.91;4999213;28;4057;-68
2023/08/21 00:44:27;;;;;;;;;;;;;;;23.76;66.19;101733.47;5002585;28;4288;-68
2023/08/21 00:46:55;;;;;;;;;;;;;;;23.76;66.72;101733.47;4997941;28;4174;-67
2023/08/21 00:49:21;;;;;;;;;;;;;;;23.75;66.93;101743.50;5000460;28;4096;-68
2023/08/21 00:51:48;;;;;;;;;;;;;;;23.75;66.97;101731.22;5001980;28;4130;-68
2023/08/21 00:54:14;;;;;;;;;;;;;;;23.73;67.05;101737.63;4994233;28;4150;-68
2023/08/21 00:56:41;;;;;;;;;;;;;;;23.74;66.93;101730.47;5001862;28;4349;-68
2023/08/21 00:59:08;;;;;;;;;;;;;;;23.75;66.90;101729.06;4962287;28;972715;-68
2023/08/21 01:01:34;;;;;;;;;;;;;;;23.74;67.01;101727.56;4995226;28;4143;-68
2023/08/21 01:04:01;;;;;;;;;;;;;;;23.76;67.36;101732.72;4980087;28;3934;-68
2023/08/21 01:06:29;;;;;;;;;;;;;;;23.76;67.13;101733.47;4999653;28;4290;-68
2023/08/21 01:09:08;;;;;;;;;;;;;;;23.77;67.53;101737.09;4997631;28;4064;-67
2023/08/21 01:11:43;;;;;;;;;;;;;;;23.77;67.54;101728.41;4998445;28;4051;-68
2023/08/21 01:14:14;;;;;;;;;;;;;;;23.74;67.66;101735.47;5009691;28;4542;-68
2023/08/21 01:16:40;;;;;;;;;;;;;;;23.74;67.66;101730.47;4998655;28;4044;-68
2023/08/21 01:19:09;;;;;;;;;;;;;;;23.75;67.82;101737.00;5001040;28;4144;-68
2023/08/21 01:21:35;;;;;;;;;;;;;;;23.75;68.03;101737.72;4999579;28;3977;-68
2023/08/21 01:24:02;;;;;;;;;;;;;;;23.73;68.14;101726.06;4997098;28;4925;-68
2023/08/21 01:26:28;;;;;;;;;;;;;;;23.72;68.00;101715.88;5000265;28;4138;-68
2023/08/21 01:28:54;;;;;;;;;;;;;;;23.72;68.13;101709.34;4994055;28;4172;-67
2023/08/21 01:31:23;;;;;;;;;;;;;;;23.72;68.19;101713.00;4993574;28;4378;-68
2023/08/21 01:33:53;;;;;;;;;;;;;;;23.72;68.34;101710.09;4998324;28;4199;-68
2023/08/21 01:36:20;;;;;;;;;;;;;;;23.69;68.12;101722.97;4997375;28;4121;-68
2023/08/21 01:38:46;;;;;;;;;;;;;;;23.71;68.17;101714.41;5014516;28;4274;-68
2023/08/21 01:41:13;;;;;;;;;;;;;;;23.70;67.99;101706.38;4998240;28;4039;-68
2023/08/21 01:43:39;;;;;;;;;;;;;;;23.72;68.50;101721.66;4998446;28;4063;-68
2023/08/21 01:46:05;;;;;;;;;;;;;;;23.69;68.62;101717.19;4997207;28;4733;-68
2023/08/21 01:48:33;;;;;;;;;;;;;;;23.69;68.75;101716.47;4998290;28;4027;-68
2023/08/21 01:51:02;;;;;;;;;;;;;;;23.72;68.76;101721.66;4998719;28;4359;-68
2023/08/21 01:53:29;;;;;;;;;;;;;;;23.74;68.62;101718.91;4997601;28;4302;-68
2023/08/21 01:55:55;;;;;;;;;;;;;;;23.74;68.79;101723.91;5001131;28;4120;-67
2023/08/21 01:58:22;;;;;;;;;;;;;;;23.75;68.84;101714.59;4995235;28;4078;-68
2023/08/21 02:00:49;;;;;;;;;;;;;;;23.77;69.18;101714.69;5014314;28;4242;-68
2023/08/21 02:03:15;;;;;;;;;;;;;;;23.75;69.10;101710.97;4998838;28;4123;-68
2023/08/21 02:05:42;;;;;;;;;;;;;;;23.77;69.33;101711.81;5007137;28;4006;-68
2023/08/21 02:08:09;;;;;;;;;;;;;;;23.76;69.28;101707.44;5000914;28;4919;-68
2023/08/21 02:10:36;;;;;;;;;;;;;;;23.76;69.40;101707.44;4998676;28;4066;-68
2023/08/21 02:13:02;;;;;;;;;;;;;;;23.76;69.57;101698.00;5000994;28;4070;-68
2023/08/21 02:15:29;;;;;;;;;;;;;;;23.76;69.34;101698.75;5008404;28;4102;-68
2023/08/21 02:17:55;;;;;;;;;;;;;;;23.76;69.46;101704.53;4996715;28;4249;-68
2023/08/21 02:20:22;;;;;;;;;;;;;;;23.76;69.70;101710.31;5004196;28;3903;-68
2023/08/21 02:22:48;;;;;;;;;;;;;;;23.79;69.44;101705.38;5001929;28;4093;-68
2023/08/21 02:25:15;;;;;;;;;;;;;;;23.78;69.76;101695.22;4998666;28;4258;-68
2023/08/21 02:27:41;;;;;;;;;;;;;;;23.77;69.86;101703.13;5010191;28;4058;-68
2023/08/21 02:30:08;;;;;;;;;;;;;;;23.78;69.65;101703.88;4997221;28;4125;-68
2023/08/21 02:32:34;;;;;;;;;;;;;;;23.76;70.00;101710.31;4999798;28;4225;-68
2023/08/21 02:35:01;;;;;;;;;;;;;;;23.78;69.88;101704.63;4995821;28;4423;-68
2023/08/21 02:37:28;;;;;;;;;;;;;;;23.78;69.79;101710.41;4998747;28;4005;-68
2023/08/21 02:39:54;;;;;;;;;;;;;;;23.79;70.02;101703.22;4997931;28;4186;-68
2023/08/21 02:42:21;;;;;;;;;;;;;;;23.79;70.08;101706.09;5001487;28;4173;-68
2023/08/21 02:44:47;;;;;;;;;;;;;;;23.77;70.34;101708.91;5004564;28;4178;-68
2023/08/21 02:47:13;;;;;;;;;;;;;;;23.78;70.21;101701.75;4999583;28;4205;-68
2023/08/21 02:49:40;;;;;;;;;;;;;;;23.78;70.43;101704.63;4996705;28;4032;-68
2023/08/21 02:52:06;;;;;;;;;;;;;;;23.79;70.27;101706.09;5000584;28;4578;-68
2023/08/21 02:54:33;;;;;;;;;;;;;;;23.79;70.45;101708.25;4997906;28;4286;-68
2023/08/21 02:56:59;;;;;;;;;;;;;;;23.79;70.40;101706.09;5001389;28;4166;-68
2023/08/21 02:59:25;;;;;;;;;;;;;;;23.81;70.50;101705.47;5000060;28;4097;-68
2023/08/21 03:01:52;;;;;;;;;;;;;;;23.79;70.67;101711.16;4993883;28;5856;-67
2023/08/21 03:04:18;;;;;;;;;;;;;;;23.76;70.97;101716.09;5007171;28;4066;-68
2023/08/21 03:06:45;;;;;;;;;;;;;;;23.79;70.85;101714.03;5015442;28;4318;-68
2023/08/21 03:09:11;;;;;;;;;;;;;;;23.78;70.96;101713.31;4995431;28;4129;-68
2023/08/21 03:11:38;;;;;;;;;;;;;;;23.77;71.09;101708.91;4990964;28;4200;-69
2023/08/21 03:14:04;;;;;;;;;;;;;;;23.76;71.08;101710.31;4995615;28;4164;-68
2023/08/21 03:16:30;;;;;;;;;;;;;;;23.76;70.94;101710.31;5017571;28;4518;-67
2023/08/21 03:18:58;;;;;;;;;;;;;;;23.75;71.18;101714.59;5011457;28;4185;-68
2023/08/21 03:21:26;;;;;;;;;;;;;;;23.74;71.29;101713.13;5010659;28;4287;-68
2023/08/21 03:23:54;;;;;;;;;;;;;;;23.73;71.21;101699.28;4998917;28;4302;-67
2023/08/21 03:26:20;;;;;;;;;;;;;;;23.74;71.02;101704.44;5007985;28;4208;-68
2023/08/21 03:28:47;;;;;;;;;;;;;;;23.74;71.20;101703.66;4998555;28;4235;-68
2023/08/21 03:31:14;;;;;;;;;;;;;;;23.74;71.10;101704.44;4994275;28;4184;-68
2023/08/21 03:33:40;;;;;;;;;;;;;;;23.74;71.05;101701.53;5013420;28;4071;-68
2023/08/21 03:36:07;;;;;;;;;;;;;;;23.73;71.08;101700.03;4996487;28;4262;-68
2023/08/21 03:38:34;;;;;;;;;;;;;;;23.73;71.20;101702.94;4993476;28;4026;-68
2023/08/21 03:41:01;;;;;;;;;;;;;;;23.74;70.99;101707.34;4997393;28;4102;-68
2023/08/21 03:43:28;;;;;;;;;;;;;;;23.76;70.95;101712.47;5017240;28;4398;-68
2023/08/21 03:45:54;;;;;;;;;;;;;;;23.76;71.30;101715.38;4994684;28;4316;-68
2023/08/21 03:48:21;;;;;;;;;;;;;;;23.75;71.07;101703.03;5012258;28;4194;-68
2023/08/21 03:50:49;;;;;;;;;;;;;;;23.76;70.86;101716.09;5006528;28;4372;-68
2023/08/21 03:53:16;;;;;;;;;;;;;;;23.77;71.02;101720.47;4987069;28;4356;-68
2023/08/21 03:55:43;;;;;;;;;;;;;;;23.78;70.95;101724.88;4996811;28;4054;-68
2023/08/21 03:58:09;;;;;;;;;;;;;;;23.80;70.71;101747.34;5017836;28;4164;-68
2023/08/21 04:00:36;;;;;;;;;;;;;;;23.79;70.79;101751.66;4995395;28;4147;-68
2023/08/21 04:03:02;;;;;;;;;;;;;;;23.80;70.95;101745.22;5006282;28;4219;-68
2023/08/21 04:05:29;;;;;;;;;;;;;;;23.82;70.61;101742.41;4997385;28;4401;-68
2023/08/21 04:07:55;;;;;;;;;;;;;;;23.83;70.62;101743.91;4999788;28;4565;-67
2023/08/21 04:10:22;;;;;;;;;;;;;;;23.82;70.61;101742.41;4998330;28;5016;-67
2023/08/21 04:12:48;;;;;;;;;;;;;;;23.83;70.46;101738.13;4995447;28;4165;-68
2023/08/21 04:15:14;;;;;;;;;;;;;;;23.73;70.95;101746.31;4989178;28;4189;-72
2023/08/21 04:17:41;;;;;;;;;;;;;;;23.54;72.01;101746.84;4991714;28;3996;-71
2023/08/21 04:20:07;;;;;;;;;;;;;;;23.39;72.89;101749.06;4992715;28;4255;-74
2023/08/21 04:22:34;;;;;;;;;;;;;;;23.31;73.32;101742.88;4989682;28;4024;-73
2023/08/21 04:25:01;;;;;;;;;;;;;;;23.24;74.20;101743.25;4989121;28;4507;-73
2023/08/21 04:27:28;;;;;;;;;;;;;;;23.25;73.93;101745.50;5008906;28;3928;-70
2023/08/21 04:29:54;;;;;;;;;;;;;;;23.26;73.75;101746.22;5012524;28;4546;-69
2023/08/21 04:32:21;;;;;;;;;;;;;;;23.19;74.02;101748.81;4995922;28;4015;-69
2023/08/21 04:34:48;;;;;;;;;;;;;;;23.12;74.51;101749.19;5015303;28;4103;-69
2023/08/21 04:37:15;;;;;;;;;;;;;;;23.05;74.63;101744.50;5002240;28;4146;-69
2023/08/21 04:39:41;;;;;;;;;;;;;;;22.98;74.82;101752.81;4996719;28;4183;-69
2023/08/21 04:42:09;;;;;;;;;;;;;;;23.03;74.94;101756.69;4996806;28;5018;-69
2023/08/21 04:44:35;;;;;;;;;;;;;;;22.97;75.23;101768.63;4998115;28;4205;-69
2023/08/21 04:47:21;;;;;;;;;;;;;;;22.88;75.50;101763.84;4997732;28;4157;-68
2023/08/21 04:49:49;;;;;;;;;;;;;;;22.92;75.41;101766.94;5017195;28;4145;-74
2023/08/21 04:52:15;;;;;;;;;;;;;;;22.82;75.83;101757.78;5015635;28;4311;-75
2023/08/21 04:54:42;;;;;;;;;;;;;;;22.81;76.10;101762.06;5005487;28;4135;-75
2023/08/21 04:57:12;;;;;;;;;;;;;;;22.80;76.04;101754.78;5007007;28;4117;-74
2023/08/21 04:59:39;;;;;;;;;;;;;;;22.85;75.88;101750.72;5000159;28;4093;-75
2023/08/21 05:02:05;;;;;;;;;;;;;;;22.80;76.03;101749.75;5022065;28;4176;-75
2023/08/21 05:04:32;;;;;;;;;;;;;;;22.79;76.22;101753.28;5013019;28;4042;-74
2023/08/21 05:06:58;;;;;;;;;;;;;;;22.92;75.99;101749.63;5010131;28;4017;-75
2023/08/21 05:09:25;;;;;;;;;;;;;;;22.90;76.30;101746.63;5006809;28;4302;-75
2023/08/21 05:11:53;;;;;;;;;;;;;;;22.96;76.19;101738.28;5022047;28;4126;-74
2023/08/21 05:14:20;;;;;;;;;;;;;;;22.92;76.37;101743.84;5001624;28;4215;-74
2023/08/21 05:16:46;;;;;;;;;;;;;;;22.96;76.36;101732.50;5005110;28;4105;-74
2023/08/21 05:19:12;;;;;;;;;;;;;;;22.97;76.84;101742.66;5023340;28;4268;-74
2023/08/21 05:21:39;;;;;;;;;;;;;;;22.98;76.87;101741.28;5003822;28;4184;-75
2023/08/21 05:24:06;;;;;;;;;;;;;;;23.04;77.03;101743.72;4997598;28;4032;-74
2023/08/21 05:26:38;;;;;;;;;;;;;;;23.09;77.20;101739.66;5004658;28;4176;-74
2023/08/21 05:29:04;;;;;;;;;;;;;;;23.09;77.05;101738.91;5011322;28;4137;-75
2023/08/21 05:31:31;;;;;;;;;;;;;;;23.12;76.87;101746.28;5016378;28;4051;-75
2023/08/21 05:33:57;;;;;;;;;;;;;;;23.12;77.26;101754.94;4996414;28;4975;-74
2023/08/21 05:36:25;;;;;;;;;;;;;;;23.13;77.35;101747.75;5013372;28;3953;-74
2023/08/21 05:38:52;;;;;;;;;;;;;;;23.16;77.24;101746.50;5001262;28;4028;-74
2023/08/21 05:41:18;;;;;;;;;;;;;;;23.20;77.12;101749.56;4999600;28;5345;-74
2023/08/21 05:43:47;;;;;;;;;;;;;;;23.20;77.15;101749.56;5018228;28;4068;-75
2023/08/21 05:46:14;;;;;;;;;;;;;;;23.25;76.91;101744.72;5002444;28;4131;-74
2023/08/21 05:48:40;;;;;;;;;;;;;;;23.30;77.02;101752.94;5018417;28;4307;-75
2023/08/21 05:51:07;;;;;;;;;;;;;;;23.32;77.03;101760.94;5001054;28;4264;-74
2023/08/21 05:53:33;;;;;;;;;;;;;;;23.31;77.13;101763.09;5002539;28;4127;-75
2023/08/21 05:56:01;;;;;;;;;;;;;;;23.34;77.55;101779.16;5000707;28;4020;-75
2023/08/21 05:58:31;;;;;;;;;;;;;;;23.32;77.73;101778.28;4995278;28;4168;-74
2023/08/21 06:00:57;;;;;;;;;;;;;;;23.33;77.36;101769.00;5013066;28;4261;-74
2023/08/21 06:03:24;;;;;;;;;;;;;;;23.31;77.60;101763.09;5018789;28;4212;-75
2023/08/21 06:06:23;;;;;;;;;;;;;;;23.33;77.64;101779.81;4990619;28;4443;-75
2023/08/21 06:08:49;;;;;;;;;;;;;;;23.30;77.92;101773.19;5003943;28;4314;-75
2023/08/21 06:11:16;;;;;;;;;;;;;;;23.33;78.03;101788.47;5007222;28;3971;-74
2023/08/21 06:13:42;;;;;;;;;;;;;;;23.36;78.12;101782.13;5003939;28;4005;-74
2023/08/21 06:16:10;;;;;;;;;;;;;;;23.33;78.03;101797.16;5011030;28;4110;-74
2023/08/21 06:18:38;;;;;;;;;;;;;;;23.35;78.45;101798.00;4996546;28;4111;-74
2023/08/21 06:21:04;;;;;;;;;;;;;;;23.35;78.26;101798.00;5013297;28;4180;-74
2023/08/21 06:23:30;;;;;;;;;;;;;;;23.33;78.25;101800.78;5000315;28;4280;-74
2023/08/21 06:25:57;;;;;;;;;;;;;;;23.28;78.38;101799.09;5011833;28;4255;-73
2023/08/21 06:28:23;;;;;;;;;;;;;;;22.82;80.98;101809.78;4996063;28;4092;-74
2023/08/21 06:30:55;;;;;;;;;;;;;;;22.61;83.00;101805.09;4996053;28;4113;-74
2023/08/21 06:33:21;;;;;;;;;;;;;;;22.83;81.74;101808.38;4989024;28;4384;-73
2023/08/21 06:35:48;;;;;;;;;;;;;;;22.89;81.00;101807.94;5011798;28;4548;-74
2023/08/21 06:38:15;;;;;;;;;;;;;;;22.98;80.70;101804.81;5001663;28;3935;-74
2023/08/21 06:40:42;;;;;;;;;;;;;;;22.82;79.66;101806.13;5000914;28;4427;-74
2023/08/21 06:43:08;;;;;;;;;;;;;;;22.75;80.55;101805.81;5001106;28;4133;-74
2023/08/21 06:45:35;;;;;;;;;;;;;;;22.68;78.97;101806.91;5001063;28;4329;-74
2023/08/21 06:48:03;;;;;;;;;;;;;;;22.86;78.27;101800.56;4999630;28;4162;-74
2023/08/21 06:50:30;;;;;;;;;;;;;;;23.12;77.02;101801.19;5005356;28;4106;-74
2023/08/21 06:52:56;;;;;;;;;;;;;;;23.04;77.33;101797.88;5006734;28;4143;-74
2023/08/21 06:55:23;;;;;;;;;;;;;;;23.12;75.71;101796.16;5002400;28;4549;-74
2023/08/21 06:57:49;;;;;;;;;;;;;;;23.01;75.89;101802.81;5003340;28;4271;-74
2023/08/21 07:00:16;;;;;;;;;;;;;;;23.12;75.47;101796.16;5000829;28;4161;-73
2023/08/21 07:02:42;;;;;;;;;;;;;;;22.97;74.25;101794.63;5009616;28;4069;-74
2023/08/21 07:05:08;;;;;;;;;;;;;;;23.14;74.38;101802.03;5002187;28;4131;-73
2023/08/21 07:07:38;;;;;;;;;;;;;;;23.20;74.41;101799.44;4999715;28;4080;-75
2023/08/21 07:10:04;;;;;;;;;;;;;;;23.30;73.73;101802.09;4997585;28;4019;-77
2023/08/21 07:12:31;;;;;;;;;;;;;;;23.27;74.36;101806.25;4998714;28;4053;-74
2023/08/21 07:14:57;;;;;;;;;;;;;;;23.24;74.45;101807.56;4999015;28;4105;-82
2023/08/21 07:17:23;;;;;;;;;;;;;;;23.38;73.78;101816.19;4998615;28;4268;-75
2023/08/21 07:19:52;;;;;;;;;;;;;;;23.54;73.04;101819.13;5002581;28;4147;-76
2023/08/21 07:22:19;;;;;;;;;;;;;;;23.60;73.14;101813.63;5000478;28;4103;-76
2023/08/21 07:24:46;;;;;;;;;;;;;;;23.62;72.62;101813.72;4999163;28;4159;-76
2023/08/21 07:27:12;;;;;;;;;;;;;;;23.63;72.58;101818.84;5000771;28;4012;-76
2023/08/21 07:29:39;;;;;;;;;;;;;;;23.64;72.55;101813.84;5001301;28;4088;-76
2023/08/21 07:32:05;;;;;;;;;;;;;;;23.66;72.41;101816.78;5001468;28;4492;-75
2023/08/21 07:34:31;;;;;;;;;;;;;;;23.67;72.66;101811.78;4998814;28;4150;-77
2023/08/21 07:36:58;;;;;;;;;;;;;;;23.69;72.23;101820.56;5004577;28;4154;-76
2023/08/21 07:39:25;;;;;;;;;;;;;;;23.70;72.30;101825.69;5005773;28;4198;-76
2023/08/21 07:41:52;;;;;;;;;;;;;;;23.71;72.16;101818.50;5009975;28;4241;-74
2023/08/21 07:44:19;;;;;;;;;;;;;;;23.73;71.68;101809.94;5005823;28;4124;-74
2023/08/21 07:46:45;;;;;;;;;;;;;;;23.73;71.87;101821.50;5000359;28;3979;-73
2023/08/21 07:49:12;;;;;;;;;;;;;;;23.72;71.89;101825.78;4999963;28;4421;-74
2023/08/21 07:51:38;;;;;;;;;;;;;;;23.78;71.44;101825.34;4999952;28;4132;-74
2023/08/21 07:54:05;;;;;;;;;;;;;;;23.78;71.60;101828.25;4998698;28;4271;-71
2023/08/21 07:56:31;;;;;;;;;;;;;;;23.79;71.44;101830.47;4998599;28;4532;-71
2023/08/21 07:58:58;;;;;;;;;;;;;;;23.79;71.26;101835.53;4996578;28;4140;-72
2023/08/21 08:01:24;;;;;;;;;;;;;;;23.77;71.16;101827.47;4997723;28;4124;-72
2023/08/21 08:03:51;;;;;;;;;;;;;;;23.76;71.06;101831.78;4998023;28;4017;-74
2023/08/21 08:06:18;;;;;;;;;;;;;;;23.77;70.85;101830.38;4999253;28;4337;-74
2023/08/21 08:08:45;;;;;;;;;;;;;;;23.77;70.73;101833.28;5000726;28;4151;-74
2023/08/21 08:11:12;;;;;;;;;;;;;;;23.79;70.67;101838.41;4998074;28;4150;-73
2023/08/21 08:13:38;;;;;;;;;;;;;;;23.78;70.63;101829.00;5000628;28;4166;-74
2023/08/21 08:16:04;;;;;;;;;;;;;;;23.79;71.02;101824.69;4999692;28;4117;-73
2023/08/21 08:18:31;;;;;;;;;;;;;;;23.78;70.90;101829.00;5000735;28;4086;-77
2023/08/21 08:20:57;;;;;;;;;;;;;;;23.80;70.94;101829.09;4999324;28;4154;-73
2023/08/21 08:23:24;;;;;;;;;;;;;;;23.80;70.93;101826.19;5022485;28;4079;-74
2023/08/21 08:25:50;;;;;;;;;;;;;;;23.80;71.07;101823.31;4998752;28;4256;-74
2023/08/21 08:28:16;;;;;;;;;;;;;;;23.81;70.94;101824.78;5001417;28;4106;-74
2023/08/21 08:30:43;;;;;;;;;;;;;;;23.81;70.89;101824.78;5004612;28;4042;-73
2023/08/21 08:33:09;;;;;;;;;;;;;;;23.81;70.99;101821.16;5003940;28;4114;-73
2023/08/21 08:35:36;;;;;;;;;;;;;;;23.82;70.78;101825.53;5002245;28;3939;-73
2023/08/21 08:38:02;;;;;;;;;;;;;;;23.83;70.78;101824.88;5004696;28;4425;-74
2023/08/21 08:40:29;;;;;;;;;;;;;;;23.83;70.88;101824.16;5001233;28;3976;-74
2023/08/21 08:42:55;;;;;;;;;;;;;;;23.83;70.79;101821.25;4999197;28;4398;-74
2023/08/21 08:45:27;;;;;;;;;;;;;;;23.85;70.90;101826.41;5002744;28;4204;-73
2023/08/21 08:47:53;;;;;;;;;;;;;;;23.86;70.25;101827.88;5010149;28;4283;-72
2023/08/21 08:50:20;;;;;;;;;;;;;;;23.83;70.46;101824.88;5006699;28;3992;-75
2023/08/21 08:52:46;;;;;;;;;;;;;;;23.83;70.06;101824.88;5012704;28;4380;-72
2023/08/21 08:55:13;;;;;;;;;;;;;;;23.87;69.64;101830.13;5001974;28;3978;-73
2023/08/21 08:57:39;;;;;;;;;;;;;;;23.90;70.02;101833.88;5003038;28;4497;-71
2023/08/21 09:00:06;;;;;;;;;;;;;;;23.98;69.67;101835.00;5002865;28;4081;-71
2023/08/21 09:02:32;;;;;;;;;;;;;;;23.92;70.08;101831.06;5005551;28;4253;-73
2023/08/21 09:04:59;;;;;;;;;;;;;;;23.93;70.14;101830.41;5013035;28;4216;-72
2023/08/21 09:07:25;;;;;;;;;;;;;;;23.91;70.45;101832.44;5005254;28;5363;-75
2023/08/21 09:09:52;;;;;;;;;;;;;;;23.93;70.65;101832.56;5001551;28;4189;-72
2023/08/21 09:12:19;;;;;;;;;;;;;;;23.94;70.91;101834.06;5000464;28;4214;-73
2023/08/21 09:14:46;;;;;;;;;;;;;;;23.95;70.58;101832.66;5001793;28;4023;-74
2023/08/21 09:17:12;;;;;;;;;;;;;;;23.95;70.64;101829.75;5002746;28;4069;-75
2023/08/21 09:19:38;;;;;;;;;;;;;;;24.08;70.94;101819.50;5010096;28;4100;-69
2023/08/21 09:22:08;;;;;;;;;;;;;;;24.23;69.81;101822.41;5000833;28;4030;-67
2023/08/21 09:24:35;;;;;;;;;;;;;;;24.35;69.28;101824.34;5002181;28;4158;-67
2023/08/21 09:27:01;;;;;;;;;;;;;;;24.24;69.41;101828.94;5002758;28;4048;-71
2023/08/21 09:29:33;;;;;;;;;;;;;;;24.11;69.95;101824.72;5004237;28;4150;-72
2023/08/21 09:31:59;;;;;;;;;;;;;;;24.08;69.83;101825.28;5008553;28;4274;-71
2023/08/21 09:34:25;;;;;;;;;;;;;;;24.06;69.83;101828.09;5001799;28;4134;-72
2023/08/21 09:36:53;;;;;;;;;;;;;;;24.05;69.79;101830.22;5002355;28;4174;-71
2023/08/21 09:39:20;;;;;;;;;;;;;;;24.03;69.83;101835.94;4997687;28;4074;-71
2023/08/21 09:41:54;;;;;;;;;;;;;;;24.03;69.97;101833.03;5004772;28;4365;-71
2023/08/21 09:44:20;;;;;;;;;;;;;;;24.01;70.12;101827.91;5001433;28;4016;-72
2023/08/21 09:46:50;;;;;;;;;;;;;;;24.03;70.02;101835.94;5000541;28;4773;-71
2023/08/21 09:49:17;;;;;;;;;;;;;;;24.01;70.35;101827.16;5000443;28;4114;-71
2023/08/21 09:51:44;;;;;;;;;;;;;;;24.05;70.03;101821.53;5001287;28;4394;-72
2023/08/21 09:54:11;;;;;;;;;;;;;;;24.07;70.09;101823.78;5002322;28;4145;-72
2023/08/21 09:56:37;;;;;;;;;;;;;;;24.10;69.99;101829.03;5004112;28;4150;-71
2023/08/21 09:59:04;;;;;;;;;;;;;;;24.11;70.30;101818.94;5000260;28;4179;-73
2023/08/21 10:01:30;;;;;;;;;;;;;;;24.16;69.82;101826.41;5011072;28;4231;-72
2023/08/21 10:03:56;;;;;;;;;;;;;;;24.17;69.68;101819.22;4998349;28;4347;-72
2023/08/21 10:06:23;;;;;;;;;;;;;;;24.17;69.71;101819.22;5000794;28;4017;-72
2023/08/21 10:08:51;;;;;;;;;;;;;;;24.18;69.44;101817.81;5001493;28;4018;-71
2023/08/21 10:11:17;;;;;;;;;;;;;;;24.22;69.46;101823.06;5000211;28;3988;-71
2023/08/21 10:13:43;;;;;;;;;;;;;;;24.35;69.01;101818.53;4999873;28;4048;-70
2023/08/21 10:16:11;;;;;;;;;;;;;;;24.22;69.37;101817.25;5001254;28;4069;-70
2023/08/21 10:18:39;;;;;;;;;;;;;;;24.21;69.07;101813.63;5004314;28;4494;-70
2023/08/21 10:21:12;;;;;;;;;;;;;;;24.20;69.43;101815.00;5005007;28;4247;-69
2023/08/21 10:23:38;;;;;;;;;;;;;;;24.20;69.38;101814.28;4999577;28;3994;-78
2023/08/21 10:26:11;;;;;;;;;;;;;;;24.40;68.82;101797.81;5015330;28;4075;-70
2023/08/21 10:28:53;;;;;;;;;;;;;;;24.36;68.75;101820.06;5001498;28;3947;-69
2023/08/21 10:31:27;;;;;;;;;;;;;;;24.26;69.02;101811.66;5002749;28;4065;-69
2023/08/21 10:33:53;;;;;;;;;;;;;;;24.24;69.03;101814.47;5001241;28;4216;-69
2023/08/21 10:36:49;;;;;;;;;;;;;;;24.21;69.25;101815.75;5005080;28;4118;-70
2023/08/21 10:39:18;;;;;;;;;;;;;;;24.20;69.32;101803.44;5004712;28;4024;-69
2023/08/21 10:41:57;;;;;;;;;;;;;;;24.19;69.32;101804.84;5004942;28;4246;-70
2023/08/21 10:44:58;;;;;;;;;;;;;;;24.19;69.36;101801.19;5003182;28;4185;-70
2023/08/21 10:47:28;;;;;;;;;;;;;;;24.20;69.15;101803.44;4991472;28;4155;-69
2023/08/21 10:49:58;;;;;;;;;;;;;;;24.16;69.73;101809.03;4999130;28;4104;-75
2023/08/21 10:52:28;;;;;;;;;;;;;;;24.20;69.59;101817.16;5003563;28;4110;-70
2023/08/21 10:54:55;;;;;;;;;;;;;;;24.21;69.46;101809.97;5002066;28;4124;-70
2023/08/21 10:57:22;;;;;;;;;;;;;;;24.21;69.55;101815.75;5004403;28;4068;-70
2023/08/21 11:00:09;;;;;;;;;;;;;;;24.20;69.39;101817.16;4999281;28;4161;-70
2023/08/21 11:02:36;;;;;;;;;;;;;;;24.20;69.26;101828.75;5001716;28;3879;-70
2023/08/21 11:05:03;;;;;;;;;;;;;;;24.20;69.26;101826.59;4997976;28;4818;-70
2023/08/21 11:07:29;;;;;;;;;;;;;;;24.19;69.26;101830.91;5000159;28;4046;-70
2023/08/21 11:09:56;;;;;;;;;;;;;;;24.20;69.29;101825.84;4999323;28;4125;-70
2023/08/21 11:12:23;;;;;;;;;;;;;;;24.18;68.98;101820.69;4999176;28;4133;-70
2023/08/21 11:14:49;;;;;;;;;;;;;;;24.18;69.51;101829.38;4997340;28;4282;-70
2023/08/21 11:17:16;;;;;;;;;;;;;;;24.19;69.29;101825.09;4999761;28;4156;-70
2023/08/21 11:19:42;;;;;;;;;;;;;;;24.19;69.17;101819.31;4997856;28;4360;-71
2023/08/21 11:22:08;;;;;;;;;;;;;;;24.19;69.30;101822.22;4998520;28;4067;-70
2023/08/21 11:24:38;;;;;;;;;;;;;;;24.20;69.13;101820.81;5000007;28;4533;-70
2023/08/21 11:27:04;;;;;;;;;;;;;;;24.19;69.29;101825.09;5000370;28;4152;-70
2023/08/21 11:29:39;;;;;;;;;;;;;;;24.20;69.32;101815.00;4998358;28;4097;-70
2023/08/21 11:32:13;;;;;;;;;;;;;;;24.21;69.25;101821.53;4999706;28;4065;-70
2023/08/21 11:34:40;;;;;;;;;;;;;;;24.20;69.34;101823.69;5007941;28;4131;-71
2023/08/21 11:37:07;;;;;;;;;;;;;;;24.20;69.35;101826.59;4998131;28;4140;-71
2023/08/21 11:39:41;;;;;;;;;;;;;;;24.20;69.33;101820.81;4998511;28;4158;-70
2023/08/21 11:42:13;;;;;;;;;;;;;;;24.20;69.38;101825.84;5001090;28;4158;-70
2023/08/21 11:44:41;;;;;;;;;;;;;;;24.20;69.30;101817.91;5001402;28;4139;-70
2023/08/21 11:47:07;;;;;;;;;;;;;;;24.21;69.13;101821.53;5000888;28;4253;-70
2023/08/21 11:49:35;;;;;;;;;;;;;;;24.21;69.33;101821.53;5007039;28;3970;-70
2023/08/21 11:52:02;;;;;;;;;;;;;;;24.20;69.22;101817.91;5002281;28;4161;-70
2023/08/21 11:54:32;;;;;;;;;;;;;;;24.21;69.37;101816.53;5000472;28;4162;-71
2023/08/21 11:56:58;;;;;;;;;;;;;;;24.21;69.13;101819.41;4997774;28;4347;-68
2023/08/21 11:59:24;;;;;;;;;;;;;;;24.17;69.32;101816.31;4996312;28;4065;-73
2023/08/21 12:01:52;;;;;;;;;;;;;;;24.18;69.34;101812.03;5006359;28;4531;-70
2023/08/21 12:04:18;;;;;;;;;;;;;;;24.21;69.10;101822.31;5004536;28;4072;-71
2023/08/21 12:06:45;;;;;;;;;;;;;;;24.24;69.23;101818.09;5008154;28;4188;-70
2023/08/21 12:09:11;;;;;;;;;;;;;;;24.24;69.15;101809.41;5002526;28;4030;-70
2023/08/21 12:11:38;;;;;;;;;;;;;;;24.25;69.17;101819.56;5005051;28;4076;-70
2023/08/21 12:14:04;;;;;;;;;;;;;;;24.25;69.23;101816.69;5005151;28;4004;-70
2023/08/21 12:16:31;;;;;;;;;;;;;;;24.25;69.21;101819.56;5008623;28;4154;-70
2023/08/21 12:18:58;;;;;;;;;;;;;;;24.25;69.19;101824.63;5022877;28;4073;-68
2023/08/21 12:21:24;;;;;;;;;;;;;;;24.25;69.27;101828.25;5005492;28;4121;-69
2023/08/21 12:23:51;;;;;;;;;;;;;;;24.26;69.07;101823.25;5004108;28;4016;-69
2023/08/21 12:26:20;;;;;;;;;;;;;;;24.24;69.11;101809.41;5004858;28;4507;-69
2023/08/21 12:28:48;;;;;;;;;;;;;;;24.25;69.12;101810.91;5013283;28;4025;-69
2023/08/21 12:31:14;;;;;;;;;;;;;;;24.26;69.25;101805.88;5009903;28;4205;-69
2023/08/21 12:33:41;;;;;;;;;;;;;;;24.25;69.25;101805.09;5007902;28;4236;-69
2023/08/21 12:36:08;;;;;;;;;;;;;;;24.26;69.14;101805.88;5003173;28;4045;-69
2023/08/21 12:38:35;;;;;;;;;;;;;;;24.25;69.00;101813.78;5005263;28;4156;-70
2023/08/21 12:41:02;;;;;;;;;;;;;;;24.25;69.09;101816.69;5003398;28;4152;-69
2023/08/21 12:43:28;;;;;;;;;;;;;;;24.25;69.19;101816.69;5006574;28;4393;-69
2023/08/21 12:45:55;;;;;;;;;;;;;;;24.28;69.11;101797.28;5010301;28;4015;-70
2023/08/21 12:48:21;;;;;;;;;;;;;;;24.28;69.07;101805.97;5004270;28;4155;-71